Time;durP1;ratioP1;P1;durP2;ratioP2;P2;SDS_P1;SDS_P2;PMS_P1;PMS_P2;Temp;Humidity;BMP_temperature;BMP_pressure;BME280_temperature;BME280_humidity;BME280_pressure;Samples;Min_cycle;Max_cycle;Signal;HPM_P1;HPM_P2
2022/03/25 00:01:35;;;;;;;;;;;8.10;63.20;;;;;;5093181;28;19908;-88
2022/03/25 00:07:03;;;;;;;;;;;8.10;63.50;;;;;;5078868;28;19958;-89
2022/03/25 00:09:29;;;;;;;;;;;8.10;63.70;;;;;;5072657;28;19935;-88
2022/03/25 00:11:54;;;;;;;;;;;8.10;63.60;;;;;;5072824;28;19912;-88
2022/03/25 00:14:20;;;;;;;;;;;8.00;63.60;;;;;;5076897;28;20333;-88
2022/03/25 00:16:45;;;;;;;;;;;7.90;64.00;;;;;;5087928;28;19916;-88
2022/03/25 00:19:11;;;;;;;;;;;7.90;65.30;;;;;;5097107;28;19958;-88
2022/03/25 00:21:37;;;;;;;;;;;8.00;64.90;;;;;;5097120;28;20495;-88
2022/03/25 00:24:04;;;;;;;;;;;7.90;64.30;;;;;;5095739;28;20003;-88
2022/03/25 00:26:30;;;;;;;;;;;7.70;64.50;;;;;;5087852;28;19913;-88
2022/03/25 00:28:55;;;;;;;;;;;7.70;65.60;;;;;;5076655;28;20437;-88
2022/03/25 00:31:21;;;;;;;;;;;7.50;66.40;;;;;;5076461;28;20369;-88
2022/03/25 00:33:49;;;;;;;;;;;7.40;67.70;;;;;;5076640;28;20388;-88
2022/03/25 00:36:16;;;;;;;;;;;7.40;68.60;;;;;;5077583;28;20450;-88
2022/03/25 05:42:55;;;;;;;;;;;7.30;68.90;;;;;;5111140;27;19918;-88
2022/03/25 05:45:22;;;;;;;;;;;4.40;80.00;;;;;;5109494;28;19916;-87
2022/03/25 05:47:48;;;;;;;;;;;4.20;79.80;;;;;;5110988;28;19912;-88
2022/03/25 05:50:13;;;;;;;;;;;4.20;80.60;;;;;;5111008;28;19957;-88
2022/03/25 05:52:40;;;;;;;;;;;4.10;81.50;;;;;;5110892;28;19951;-88
2022/03/25 05:55:05;;;;;;;;;;;4.10;81.50;;;;;;5110608;28;20440;-88
2022/03/25 05:57:32;;;;;;;;;;;4.30;80.60;;;;;;5110860;28;19908;-88
2022/03/25 05:59:58;;;;;;;;;;;4.40;79.90;;;;;;5110680;28;19994;-88
2022/03/25 06:02:25;;;;;;;;;;;4.50;79.10;;;;;;5103483;28;20015;-88
2022/03/25 06:04:51;;;;;;;;;;;4.70;78.20;;;;;;5108634;28;19912;-88
2022/03/25 06:07:17;;;;;;;;;;;5.00;76.30;;;;;;5099864;28;19913;-88
2022/03/25 06:09:43;;;;;;;;;;;5.20;75.00;;;;;;5099115;28;19919;-87
2022/03/25 06:12:08;;;;;;;;;;;5.40;74.30;;;;;;5103897;28;19912;-88
2022/03/25 06:14:34;;;;;;;;;;;5.50;75.30;;;;;;5108184;28;19912;-88
2022/03/25 06:16:59;;;;;;;;;;;5.60;74.10;;;;;;5090254;28;19974;-88
2022/03/25 06:19:25;;;;;;;;;;;5.50;76.30;;;;;;5089970;28;20451;-87
2022/03/25 06:21:50;;;;;;;;;;;5.60;74.60;;;;;;5089693;28;20378;-87
2022/03/25 06:24:17;;;;;;;;;;;5.80;73.30;;;;;;5105314;28;20006;-87
2022/03/25 06:26:43;;;;;;;;;;;6.00;72.60;;;;;;5101111;28;19911;-88
2022/03/25 06:29:09;;;;;;;;;;;6.10;73.20;;;;;;5094549;28;19912;-88
2022/03/25 06:31:34;;;;;;;;;;;6.10;74.90;;;;;;5105291;28;20357;-88
2022/03/25 06:34:00;;;;;;;;;;;6.00;73.40;;;;;;5103768;28;20377;-88
2022/03/25 06:36:26;;;;;;;;;;;6.20;73.80;;;;;;5105394;28;19913;-87
2022/03/25 06:38:51;;;;;;;;;;;6.40;73.60;;;;;;5097944;28;19995;-88
2022/03/25 06:41:17;;;;;;;;;;;6.40;74.30;;;;;;5112763;28;20381;-87
2022/03/25 06:55:12;;;;;;;;;;;6.60;76.10;;;;;;5096331;27;19916;-89
2022/03/25 06:57:38;;;;;;;;;;;7.40;72.00;;;;;;5091801;28;19927;-89
2022/03/25 07:00:05;;;;;;;;;;;7.60;71.70;;;;;;5098924;28;19919;-88
2022/03/25 07:02:30;;;;;;;;;;;7.80;71.00;;;;;;5092097;28;19912;-89
2022/03/25 07:04:56;;;;;;;;;;;7.90;70.60;;;;;;5088852;28;19974;-89
2022/03/25 07:07:26;;;;;;;;;;;8.20;69.20;;;;;;5090956;28;20003;-89
2022/03/25 07:09:54;;;;;;;;;;;8.30;68.80;;;;;;5082986;28;19924;-87
2022/03/25 07:12:20;;;;;;;;;;;8.40;68.60;;;;;;5087580;28;19920;-88
2022/03/25 07:14:46;;;;;;;;;;;8.50;68.40;;;;;;5088583;28;20027;-89
2022/03/25 07:17:11;;;;;;;;;;;8.70;68.90;;;;;;5092123;28;20118;-89
2022/03/25 07:19:37;;;;;;;;;;;8.80;68.30;;;;;;5101161;28;19915;-89
2022/03/25 07:22:03;;;;;;;;;;;9.00;68.00;;;;;;5091670;28;19919;-89
2022/03/25 07:24:29;;;;;;;;;;;9.10;69.50;;;;;;5090561;28;19922;-88
2022/03/25 07:26:55;;;;;;;;;;;9.20;67.90;;;;;;5100331;28;20408;-89
2022/03/25 07:29:20;;;;;;;;;;;9.40;67.70;;;;;;5088322;28;19952;-88
2022/03/25 07:31:46;;;;;;;;;;;9.40;66.80;;;;;;5089137;28;19912;-89
2022/03/25 07:34:11;;;;;;;;;;;9.60;65.30;;;;;;5090919;28;20274;-89
2022/03/25 07:36:37;;;;;;;;;;;9.80;63.50;;;;;;5087232;28;19958;-89
2022/03/25 07:39:03;;;;;;;;;;;9.90;64.00;;;;;;5087265;28;19951;-90
2022/03/25 07:41:29;;;;;;;;;;;10.10;62.80;;;;;;5088175;28;19979;-89
2022/03/25 07:43:55;;;;;;;;;;;10.30;61.60;;;;;;5088610;28;19912;-89
2022/03/25 07:46:20;;;;;;;;;;;10.40;62.10;;;;;;5090670;28;19912;-89
2022/03/25 07:48:46;;;;;;;;;;;10.50;62.60;;;;;;5089377;28;20007;-89
2022/03/25 07:51:11;;;;;;;;;;;10.60;62.90;;;;;;5090497;28;20007;-89
2022/03/25 07:53:37;;;;;;;;;;;10.80;61.10;;;;;;5087749;28;19920;-90
2022/03/25 07:56:03;;;;;;;;;;;10.90;59.50;;;;;;5091783;28;19916;-89
2022/03/25 07:58:28;;;;;;;;;;;11.00;59.90;;;;;;5087515;28;19912;-89
2022/03/25 08:00:54;;;;;;;;;;;11.20;58.90;;;;;;5087781;28;19913;-89
2022/03/25 08:03:20;;;;;;;;;;;11.30;59.90;;;;;;5089018;28;19912;-89
2022/03/25 08:05:50;;;;;;;;;;;11.40;59.70;;;;;;5087012;28;19920;-89
2022/03/25 08:08:18;;;;;;;;;;;11.40;58.90;;;;;;5078765;28;19924;-90
2022/03/25 08:10:45;;;;;;;;;;;11.60;57.20;;;;;;5075334;28;20421;-90
2022/03/25 08:13:11;;;;;;;;;;;11.70;56.30;;;;;;5075808;28;19936;-90
2022/03/25 08:15:37;;;;;;;;;;;11.90;55.90;;;;;;5082652;28;19924;-90
2022/03/25 08:18:04;;;;;;;;;;;12.20;55.40;;;;;;5075586;28;19966;-90
2022/03/25 08:20:33;;;;;;;;;;;12.40;53.90;;;;;;5075043;28;19919;-90
2022/03/25 08:23:00;;;;;;;;;;;12.60;52.30;;;;;;5074790;28;19916;-91
2022/03/25 08:28:10;;;;;;;;;;;13.00;51.10;;;;;;5071538;28;19959;-90
2022/03/25 08:30:36;;;;;;;;;;;13.10;51.40;;;;;;5068159;28;19948;-90
2022/03/25 08:33:02;;;;;;;;;;;13.20;50.60;;;;;;5071845;28;19913;-88
2022/03/25 08:35:28;;;;;;;;;;;13.30;49.80;;;;;;5073147;28;19913;-88
2022/03/25 08:37:54;;;;;;;;;;;13.40;48.70;;;;;;5077834;28;19912;-88
2022/03/25 08:40:21;;;;;;;;;;;13.40;49.30;;;;;;5080197;28;19921;-88
2022/03/25 08:42:46;;;;;;;;;;;13.40;48.80;;;;;;5087004;28;19920;-88
2022/03/25 08:45:14;;;;;;;;;;;13.50;49.40;;;;;;5076087;28;19913;-88
2022/03/25 08:47:41;;;;;;;;;;;13.60;49.00;;;;;;5080089;28;19936;-89
2022/03/25 08:50:09;;;;;;;;;;;13.70;47.70;;;;;;5078144;28;19960;-90
2022/03/25 08:52:35;;;;;;;;;;;13.90;46.70;;;;;;5072297;28;20282;-91
2022/03/25 08:57:29;;;;;;;;;;;14.10;44.60;;;;;;5099229;27;19923;-88
2022/03/25 08:59:54;;;;;;;;;;;14.40;43.10;;;;;;5093764;28;19912;-89
2022/03/25 09:02:20;;;;;;;;;;;14.60;42.90;;;;;;5097831;28;19965;-88
2022/03/25 09:04:46;;;;;;;;;;;14.80;41.50;;;;;;5089455;28;20032;-88
2022/03/25 09:07:12;;;;;;;;;;;14.90;41.20;;;;;;5094722;28;20394;-88
2022/03/25 09:09:38;;;;;;;;;;;15.10;41.80;;;;;;5099139;28;20401;-89
2022/03/25 09:13:11;;;;;;;;;;;15.20;41.10;;;;;;5107668;27;19923;-88
2022/03/25 09:15:36;;;;;;;;;;;15.40;39.50;;;;;;5091343;28;20434;-88
2022/03/25 09:18:02;;;;;;;;;;;15.40;40.00;;;;;;5093800;28;20007;-88
2022/03/25 09:20:28;;;;;;;;;;;15.40;39.50;;;;;;5098715;28;19938;-88
2022/03/25 09:22:54;;;;;;;;;;;15.50;39.60;;;;;;5091626;28;19959;-88
2022/03/25 09:25:19;;;;;;;;;;;15.50;41.40;;;;;;5092178;28;19912;-88
2022/03/25 09:27:45;;;;;;;;;;;15.60;40.90;;;;;;5091190;28;19916;-88
2022/03/25 09:30:11;;;;;;;;;;;15.70;40.70;;;;;;5097941;28;19916;-88
2022/03/25 09:32:37;;;;;;;;;;;15.90;39.80;;;;;;5102059;28;19915;-89
2022/03/25 09:35:08;;;;;;;;;;;16.10;37.90;;;;;;5093832;28;19913;-88
2022/03/25 09:37:35;;;;;;;;;;;16.30;40.70;;;;;;5090396;28;19912;-89
2022/03/25 09:40:02;;;;;;;;;;;16.40;41.20;;;;;;5091279;28;20374;-89
2022/03/25 09:42:28;;;;;;;;;;;16.60;39.20;;;;;;5094935;28;19958;-89
2022/03/25 09:44:53;;;;;;;;;;;16.80;37.40;;;;;;5097402;28;20340;-88
2022/03/25 09:47:20;;;;;;;;;;;16.90;36.80;;;;;;5095145;28;19912;-88
2022/03/25 09:49:46;;;;;;;;;;;17.00;37.20;;;;;;5097050;28;19912;-88
2022/03/25 09:52:11;;;;;;;;;;;17.10;38.70;;;;;;5094808;28;20373;-89
2022/03/25 09:54:37;;;;;;;;;;;17.20;37.00;;;;;;5090490;28;19913;-88
2022/03/25 09:57:03;;;;;;;;;;;17.40;39.30;;;;;;5095879;28;19948;-89
2022/03/25 09:59:29;;;;;;;;;;;17.50;38.90;;;;;;5094587;28;19912;-88
2022/03/25 10:01:55;;;;;;;;;;;17.50;36.10;;;;;;5089343;28;20366;-88
2022/03/25 10:04:36;;;;;;;;;;;17.30;36.90;;;;;;5094207;28;20037;-88
2022/03/25 10:07:22;;;;;;;;;;;17.30;37.30;;;;;;5094061;28;19912;-88
2022/03/25 10:09:49;;;;;;;;;;;17.30;36.50;;;;;;5092773;28;20011;-88
2022/03/25 10:12:33;;;;;;;;;;;17.60;41.00;;;;;;5086341;28;19921;-88
2022/03/25 10:15:13;;;;;;;;;;;17.70;40.30;;;;;;5086677;28;20378;-89
2022/03/25 10:17:46;;;;;;;;;;;17.90;37.70;;;;;;5086464;28;19935;-89
2022/03/25 10:20:11;;;;;;;;;;;18.10;35.90;;;;;;5085553;28;19958;-88
2022/03/25 10:22:37;;;;;;;;;;;18.30;35.60;;;;;;5085821;28;19912;-89
2022/03/25 10:25:09;;;;;;;;;;;18.30;37.40;;;;;;5075233;28;20006;-89
2022/03/25 10:27:35;;;;;;;;;;;18.40;35.90;;;;;;5075306;28;20396;-89
2022/03/25 10:30:03;;;;;;;;;;;18.60;35.30;;;;;;5075158;28;19982;-89
2022/03/25 10:32:29;;;;;;;;;;;18.70;35.20;;;;;;5076236;28;19916;-89
2022/03/25 10:35:08;;;;;;;;;;;18.80;34.50;;;;;;5073111;28;19919;-89
2022/03/25 10:37:38;;;;;;;;;;;18.80;35.90;;;;;;5069980;28;20294;-89
2022/03/25 10:40:05;;;;;;;;;;;18.80;35.60;;;;;;5081514;28;20057;-89
2022/03/25 10:42:31;;;;;;;;;;;18.60;35.60;;;;;;5074026;28;19991;-89
2022/03/25 10:44:57;;;;;;;;;;;18.60;36.80;;;;;;5073632;28;19999;-89
2022/03/25 10:47:24;;;;;;;;;;;18.40;36.50;;;;;;5073667;28;20014;-89
2022/03/25 10:49:50;;;;;;;;;;;18.40;36.40;;;;;;5074839;28;20007;-89
2022/03/25 10:52:37;;;;;;;;;;;18.60;38.70;;;;;;5074823;28;19920;-89
2022/03/25 10:55:18;;;;;;;;;;;18.90;38.30;;;;;;5074067;28;19912;-89
2022/03/25 10:57:54;;;;;;;;;;;19.20;34.30;;;;;;5071288;28;19930;-89
2022/03/25 11:00:20;;;;;;;;;;;19.50;33.60;;;;;;5072281;28;19957;-89
2022/03/25 11:02:46;;;;;;;;;;;19.80;33.70;;;;;;5073640;28;20011;-89
2022/03/25 11:05:14;;;;;;;;;;;20.00;35.10;;;;;;5075605;28;20008;-89
2022/03/25 11:07:41;;;;;;;;;;;20.10;33.70;;;;;;5073947;28;19913;-89
2022/03/25 11:10:07;;;;;;;;;;;20.30;32.80;;;;;;5074669;28;20274;-89
2022/03/25 11:12:32;;;;;;;;;;;20.30;33.20;;;;;;5074581;28;19942;-89
2022/03/25 11:14:59;;;;;;;;;;;20.10;34.20;;;;;;5074607;28;19908;-89
2022/03/25 11:17:28;;;;;;;;;;;20.00;32.60;;;;;;5072565;28;19954;-89
2022/03/25 11:19:56;;;;;;;;;;;20.00;32.50;;;;;;5074878;28;20358;-89
2022/03/25 11:22:22;;;;;;;;;;;20.10;34.90;;;;;;5074950;28;19912;-90
2022/03/25 11:24:49;;;;;;;;;;;20.10;33.20;;;;;;5074706;28;19908;-89
2022/03/25 11:27:19;;;;;;;;;;;20.10;33.00;;;;;;5074294;28;19913;-89
2022/03/25 11:29:47;;;;;;;;;;;20.10;33.10;;;;;;5074573;28;19999;-89
2022/03/25 11:32:14;;;;;;;;;;;20.10;30.80;;;;;;5074616;28;19916;-89
2022/03/25 11:34:42;;;;;;;;;;;20.10;31.40;;;;;;5073818;28;19908;-89
2022/03/25 11:37:14;;;;;;;;;;;20.20;31.90;;;;;;5072945;28;19913;-89
2022/03/25 11:39:40;;;;;;;;;;;20.40;31.40;;;;;;5074285;28;19912;-89
2022/03/25 11:42:07;;;;;;;;;;;20.80;30.30;;;;;;5074423;28;19931;-89
2022/03/25 11:44:33;;;;;;;;;;;21.10;31.60;;;;;;5073072;28;20289;-90
2022/03/25 11:46:59;;;;;;;;;;;21.60;32.70;;;;;;5074159;28;20154;-90
2022/03/25 11:49:26;;;;;;;;;;;22.00;31.80;;;;;;5074506;28;19959;-89
2022/03/25 11:51:51;;;;;;;;;;;22.50;30.70;;;;;;5074165;28;19955;-90
2022/03/25 11:54:36;;;;;;;;;;;22.90;30.50;;;;;;5072862;28;19948;-90
2022/03/25 11:57:03;;;;;;;;;;;23.20;28.40;;;;;;5074136;28;19982;-89
2022/03/25 11:59:47;;;;;;;;;;;23.50;27.70;;;;;;5074277;28;19999;-89
2022/03/25 12:02:23;;;;;;;;;;;22.90;26.30;;;;;;5073734;28;19915;-90
2022/03/25 12:04:49;;;;;;;;;;;23.20;28.90;;;;;;5073489;28;19994;-90
2022/03/25 12:07:16;;;;;;;;;;;23.60;28.70;;;;;;5073763;28;20007;-90
2022/03/25 12:09:44;;;;;;;;;;;23.80;26.90;;;;;;5073531;28;19908;-90
2022/03/25 12:12:10;;;;;;;;;;;24.00;27.00;;;;;;5073583;28;20010;-89
2022/03/25 12:14:36;;;;;;;;;;;23.80;26.70;;;;;;5073878;28;19944;-89
2022/03/25 12:17:02;;;;;;;;;;;23.20;25.80;;;;;;5073154;28;19965;-89
2022/03/25 12:19:30;;;;;;;;;;;23.00;27.20;;;;;;5073041;28;19995;-89
2022/03/25 12:21:57;;;;;;;;;;;22.40;27.40;;;;;;5073105;28;19908;-88
2022/03/25 12:24:24;;;;;;;;;;;22.00;28.00;;;;;;5073517;28;19912;-89
2022/03/25 12:26:57;;;;;;;;;;;21.60;28.60;;;;;;5073294;28;19920;-89
2022/03/25 12:29:29;;;;;;;;;;;22.00;25.90;;;;;;5072689;28;20378;-89
2022/03/25 12:31:55;;;;;;;;;;;22.50;26.70;;;;;;5076684;28;19916;-89
2022/03/25 12:34:34;;;;;;;;;;;23.10;24.80;;;;;;5073862;28;19923;-90
2022/03/25 12:37:02;;;;;;;;;;;24.00;25.70;;;;;;5072428;28;19982;-90
2022/03/25 12:39:28;;;;;;;;;;;25.20;25.40;;;;;;5071253;28;19919;-90
2022/03/25 12:41:54;;;;;;;;;;;25.60;22.50;;;;;;5069693;28;19920;-89
2022/03/25 12:44:27;;;;;;;;;;;26.30;24.20;;;;;;5072692;28;19995;-90
2022/03/25 12:46:56;;;;;;;;;;;26.70;22.40;;;;;;5071519;28;19916;-90
2022/03/25 12:49:22;;;;;;;;;;;27.20;21.10;;;;;;5076934;28;19918;-90
2022/03/25 12:51:57;;;;;;;;;;;28.00;20.30;;;;;;5071778;28;20015;-90
2022/03/25 12:54:23;;;;;;;;;;;27.50;20.30;;;;;;5073279;28;19924;-90
2022/03/25 12:56:52;;;;;;;;;;;27.00;20.70;;;;;;5070585;28;19913;-91
2022/03/25 12:59:28;;;;;;;;;;;26.50;21.00;;;;;;5071872;28;19920;-90
2022/03/25 13:01:53;;;;;;;;;;;25.20;22.90;;;;;;5070599;28;19958;-90
2022/03/25 13:04:31;;;;;;;;;;;25.20;22.50;;;;;;5070216;28;19912;-91
2022/03/25 13:06:58;;;;;;;;;;;25.40;20.40;;;;;;5070691;28;19999;-90
2022/03/25 13:09:24;;;;;;;;;;;25.50;18.80;;;;;;5071090;28;19951;-90
2022/03/25 13:12:02;;;;;;;;;;;26.20;19.70;;;;;;5070107;28;19968;-91
2022/03/25 13:14:31;;;;;;;;;;;26.50;20.90;;;;;;5070744;28;20019;-91
2022/03/25 13:16:56;;;;;;;;;;;26.60;20.10;;;;;;5081562;28;20259;-90
2022/03/25 13:19:30;;;;;;;;;;;27.70;18.90;;;;;;5089754;28;19938;-90
2022/03/25 13:21:55;;;;;;;;;;;28.40;18.80;;;;;;5070529;28;19919;-90
2022/03/25 13:24:21;;;;;;;;;;;29.20;17.50;;;;;;5079748;28;19920;-90
2022/03/25 13:26:46;;;;;;;;;;;29.30;17.80;;;;;;5071294;28;19913;-90
2022/03/25 13:29:12;;;;;;;;;;;29.20;17.00;;;;;;5076510;28;19912;-90
2022/03/25 13:31:37;;;;;;;;;;;28.20;15.20;;;;;;5075665;28;19938;-90
2022/03/25 13:34:03;;;;;;;;;;;28.20;15.20;;;;;;5070032;28;19928;-90
2022/03/25 13:36:30;;;;;;;;;;;29.10;17.10;;;;;;5071930;28;19965;-90
2022/03/25 13:39:06;;;;;;;;;;;28.70;15.80;;;;;;5070719;28;19944;-90
2022/03/25 13:41:33;;;;;;;;;;;28.70;17.60;;;;;;5069682;28;20515;-90
2022/03/25 13:44:07;;;;;;;;;;;28.60;18.40;;;;;;5068930;28;19920;-91
2022/03/25 13:46:32;;;;;;;;;;;29.30;16.50;;;;;;5071970;28;19912;-91
2022/03/25 13:48:59;;;;;;;;;;;30.80;15.80;;;;;;5068674;28;19916;-91
2022/03/25 13:51:28;;;;;;;;;;;31.40;15.60;;;;;;5068567;28;19929;-91
2022/03/25 13:53:57;;;;;;;;;;;31.90;15.70;;;;;;5066300;28;19965;-91
2022/03/25 13:56:23;;;;;;;;;;;31.50;15.80;;;;;;5084187;28;19931;-90
2022/03/25 13:58:53;;;;;;;;;;;30.70;16.20;;;;;;5071950;28;19913;-91
2022/03/25 14:01:29;;;;;;;;;;;29.90;17.20;;;;;;5078165;28;20014;-91
2022/03/25 14:04:05;;;;;;;;;;;29.90;17.00;;;;;;5074869;28;19920;-91
2022/03/25 14:06:32;;;;;;;;;;;30.80;16.70;;;;;;5070669;28;19920;-90
2022/03/25 14:08:58;;;;;;;;;;;31.40;15.20;;;;;;5073405;28;19931;-90
2022/03/25 14:11:33;;;;;;;;;;;31.60;15.10;;;;;;5081835;28;20317;-91
2022/03/25 14:13:59;;;;;;;;;;;31.70;15.60;;;;;;5073264;28;19935;-90
2022/03/25 14:16:26;;;;;;;;;;;31.30;15.20;;;;;;5073393;28;19912;-90
2022/03/25 14:18:54;;;;;;;;;;;31.10;14.80;;;;;;5085479;28;19912;-90
2022/03/25 14:21:26;;;;;;;;;;;31.10;15.70;;;;;;5074599;28;19919;-90
2022/03/25 14:24:30;;;;;;;;;;;29.80;15.60;;;;;;5074690;28;19981;-91
2022/03/25 14:26:37;;;;;;;;;;;30.10;16.30;;;;;;5073037;28;19951;-91
2022/03/25 14:29:04;;;;;;;;;;;31.60;14.90;;;;;;5073194;28;20355;-90
2022/03/25 14:31:29;;;;;;;;;;;32.40;13.90;;;;;;5074706;28;20392;-91
2022/03/25 14:33:55;;;;;;;;;;;32.60;14.40;;;;;;5074064;28;19916;-91
2022/03/25 14:36:21;;;;;;;;;;;32.50;15.10;;;;;;5074605;28;19916;-91
2022/03/25 14:38:47;;;;;;;;;;;32.20;15.50;;;;;;5075949;28;20012;-90
2022/03/25 14:41:12;;;;;;;;;;;31.50;15.60;;;;;;5076734;28;19934;-90
2022/03/25 14:43:39;;;;;;;;;;;30.70;16.00;;;;;;5081433;28;19920;-90
2022/03/25 14:46:04;;;;;;;;;;;29.70;17.20;;;;;;5071847;28;19920;-90
2022/03/25 14:48:30;;;;;;;;;;;28.90;18.20;;;;;;5072298;28;19921;-91
2022/03/25 14:50:55;;;;;;;;;;;28.50;17.90;;;;;;5075045;28;19928;-91
2022/03/25 14:53:21;;;;;;;;;;;28.20;17.40;;;;;;5072187;28;19924;-91
2022/03/25 14:55:47;;;;;;;;;;;28.40;17.70;;;;;;5073186;28;19961;-91
2022/03/25 14:58:12;;;;;;;;;;;28.70;17.40;;;;;;5077589;28;20364;-91
2022/03/25 15:07:13;;;;;;;;;;;29.40;16.90;;;;;;5121474;27;19922;-90
2022/03/25 15:09:39;;;;;;;;;;;29.00;18.30;;;;;;5104828;28;19912;-90
2022/03/25 15:12:04;;;;;;;;;;;28.20;19.40;;;;;;5101922;28;19961;-90
2022/03/25 15:14:30;;;;;;;;;;;28.00;18.70;;;;;;5108041;28;19911;-90
2022/03/25 15:16:56;;;;;;;;;;;28.20;18.70;;;;;;5100579;28;19965;-90
2022/03/25 15:19:22;;;;;;;;;;;27.90;19.30;;;;;;5104370;28;19912;-90
2022/03/25 15:21:47;;;;;;;;;;;27.60;19.30;;;;;;5104698;28;19912;-90
